createdAt,value
2019-01-15T00:00:50.744Z,79.00
2019-01-15T00:03:44.390Z,78.40
2019-01-15T00:06:38.545Z,78.80
2019-01-15T00:09:32.430Z,78.00
2019-01-15T00:12:26.161Z,78.00
2019-01-15T00:15:11.059Z,78.10
2019-01-15T00:17:56.273Z,77.30
2019-01-15T00:20:53.269Z,77.40
2019-01-15T00:23:38.513Z,77.60
2019-01-15T00:26:32.485Z,77.60
2019-01-15T00:29:26.233Z,77.80
2019-01-15T00:32:11.073Z,78.00
2019-01-15T00:34:56.164Z,76.90
2019-01-15T00:37:50.445Z,76.10
2019-01-15T00:40:44.061Z,75.70
2019-01-15T00:43:28.453Z,75.10
2019-01-15T00:46:13.254Z,74.60
2019-01-15T00:48:58.209Z,75.20
2019-01-15T00:51:43.705Z,75.20
2019-01-15T00:54:37.293Z,74.90
2019-01-15T00:57:23.016Z,75.40
2019-01-15T01:00:08.097Z,74.90
2019-01-15T01:02:52.501Z,75.60
2019-01-15T01:05:37.057Z,75.20
2019-01-15T01:08:30.481Z,74.50
2019-01-15T01:11:15.359Z,74.40
2019-01-15T01:14:00.349Z,74.70
2019-01-15T01:16:45.381Z,74.40
2019-01-15T01:19:39.342Z,74.40
2019-01-15T01:22:24.078Z,74.20
2019-01-15T01:25:09.417Z,75.20
2019-01-15T01:28:03.073Z,75.20
2019-01-15T01:30:57.038Z,75.50
2019-01-15T01:33:42.126Z,75.70
2019-01-15T01:36:35.705Z,75.40
2019-01-15T01:39:20.655Z,75.80
2019-01-15T01:42:05.143Z,74.90
2019-01-15T01:44:50.028Z,74.50
2019-01-15T01:47:34.847Z,74.70
2019-01-15T01:50:19.827Z,74.80
2019-01-15T01:53:04.495Z,74.00
2019-01-15T01:55:49.249Z,74.20
2019-01-15T01:58:33.726Z,74.20
2019-01-15T02:01:17.815Z,73.40
2019-01-15T02:04:11.291Z,73.80
2019-01-15T02:06:55.792Z,73.20
2019-01-15T02:09:40.469Z,74.10
2019-01-15T02:12:24.595Z,73.70
2019-01-15T02:15:18.403Z,74.10
2019-01-15T02:18:03.131Z,74.20
2019-01-15T02:20:47.491Z,74.70
2019-01-15T02:23:32.127Z,74.10
2019-01-15T02:26:16.331Z,74.10
2019-01-15T02:29:11.668Z,74.60
2019-01-15T02:31:56.536Z,74.20
2019-01-15T02:34:41.187Z,74.50
2019-01-15T02:37:26.055Z,74.70
2019-01-15T02:40:10.937Z,74.80
2019-01-15T02:42:55.343Z,74.30
2019-01-15T02:45:40.232Z,74.90
2019-01-15T02:48:25.329Z,74.80
2019-01-15T02:51:10.132Z,74.90
2019-01-15T02:53:54.728Z,74.90
2019-01-15T02:56:39.543Z,74.70
2019-01-15T02:59:24.222Z,74.50
2019-01-15T03:02:09.220Z,75.30
2019-01-15T03:04:54.201Z,76.10
2019-01-15T03:07:38.659Z,75.50
2019-01-15T03:10:23.191Z,75.60
2019-01-15T03:13:07.911Z,75.30
2019-01-15T03:16:01.707Z,75.40
2019-01-15T03:18:55.236Z,74.90
2019-01-15T03:21:39.597Z,76.30
2019-01-15T03:24:23.799Z,76.30
2019-01-15T03:27:17.403Z,76.00
2019-01-15T03:30:00.358Z,75.90
2019-01-15T03:32:45.030Z,74.80
2019-01-15T03:35:29.591Z,74.30
2019-01-15T03:38:14.011Z,74.70
2019-01-15T03:41:07.148Z,74.00
2019-01-15T03:43:51.543Z,74.70
2019-01-15T03:46:36.159Z,73.40
2019-01-15T03:49:29.347Z,74.10
2019-01-15T03:52:13.907Z,74.20
2019-01-15T03:54:58.420Z,72.90
2019-01-15T03:57:52.892Z,71.50
2019-01-15T04:00:37.583Z,71.20
2019-01-15T04:03:22.607Z,70.50
2019-01-15T04:06:07.543Z,70.80
2019-01-15T04:08:52.550Z,71.00
2019-01-15T04:11:37.123Z,70.30
2019-01-15T04:14:21.720Z,70.20
2019-01-15T04:17:06.570Z,72.20
2019-01-15T04:19:51.424Z,74.20
2019-01-15T04:22:36.219Z,75.00
2019-01-15T04:25:20.829Z,76.40
2019-01-15T04:28:05.423Z,76.60
2019-01-15T04:30:50.196Z,75.60
2019-01-15T04:33:33.638Z,75.20
2019-01-15T04:36:25.478Z,75.40
2019-01-15T04:39:09.711Z,76.20
2019-01-15T04:41:54.211Z,77.40
2019-01-15T04:44:38.739Z,77.80
2019-01-15T04:47:32.140Z,78.40
2019-01-15T04:50:16.760Z,78.70
2019-01-15T04:53:02.433Z,79.00
2019-01-15T04:55:55.505Z,79.10
2019-01-15T04:58:40.165Z,79.90
2019-01-15T05:01:24.859Z,80.30
2019-01-15T05:04:09.171Z,80.20
2019-01-15T05:07:02.384Z,80.10
2019-01-15T05:09:47.503Z,80.00
2019-01-15T05:12:32.664Z,80.30
2019-01-15T05:15:28.500Z,80.30
2019-01-15T05:18:13.211Z,80.40
2019-01-15T05:20:57.297Z,80.40
2019-01-15T05:23:42.179Z,80.30
2019-01-15T05:26:28.267Z,80.40
2019-01-15T05:29:13.341Z,80.20
2019-01-15T05:31:58.121Z,80.30
2019-01-15T05:34:42.831Z,81.00
2019-01-15T05:37:27.356Z,81.00
2019-01-15T05:40:20.709Z,81.30
2019-01-15T05:43:05.379Z,81.80
2019-01-15T05:45:51.804Z,82.00
2019-01-15T05:48:37.443Z,81.90
2019-01-15T05:51:36.343Z,82.20
2019-01-15T05:54:29.829Z,81.90
2019-01-15T05:57:14.314Z,82.20
2019-01-15T05:59:59.151Z,82.30
2019-01-15T06:02:43.392Z,82.20
2019-01-15T06:05:28.534Z,81.90
2019-01-15T06:08:13.299Z,82.20
2019-01-15T06:10:58.292Z,82.40
2019-01-15T06:13:42.991Z,82.50
2019-01-15T06:16:37.602Z,82.20
2019-01-15T06:19:22.460Z,82.30
2019-01-15T06:22:16.272Z,81.90
2019-01-15T06:25:01.524Z,82.20
2019-01-15T06:27:54.981Z,82.30
2019-01-15T06:30:39.700Z,82.40
2019-01-15T06:33:24.713Z,82.40
2019-01-15T06:36:09.998Z,82.80
2019-01-15T06:39:05.008Z,82.50
2019-01-15T06:41:49.800Z,82.30
2019-01-15T06:44:34.661Z,83.20
2019-01-15T06:47:18.755Z,81.70
2019-01-15T06:50:11.936Z,81.80
2019-01-15T06:52:57.108Z,82.00
2019-01-15T06:55:43.140Z,82.00
2019-01-15T06:58:28.299Z,81.80
2019-01-15T07:01:12.887Z,83.10
2019-01-15T07:03:57.715Z,82.50
2019-01-15T07:09:37.033Z,83.20
2019-01-15T07:12:30.519Z,82.00
2019-01-15T07:15:15.277Z,82.30
2019-01-15T07:18:00.073Z,82.70
2019-01-15T07:20:44.679Z,82.60
2019-01-15T07:23:29.576Z,82.50
2019-01-15T07:26:15.253Z,82.60
2019-01-15T07:29:08.658Z,83.10
2019-01-15T07:31:53.548Z,82.90
2019-01-15T07:34:38.307Z,82.70
2019-01-15T07:37:22.956Z,82.60
2019-01-15T07:40:07.821Z,81.40
2019-01-15T07:42:52.638Z,81.00
2019-01-15T07:45:37.347Z,81.80
2019-01-15T07:48:22.299Z,82.20
2019-01-15T07:51:06.756Z,82.40
2019-01-15T07:53:51.269Z,82.80
2019-01-15T07:56:35.675Z,82.70
2019-01-15T07:59:29.168Z,83.00
2019-01-15T08:02:15.431Z,83.10
2019-01-15T08:05:00.259Z,83.20
2019-01-15T08:07:45.122Z,83.00
2019-01-15T08:10:30.135Z,82.00
2019-01-15T08:13:15.171Z,81.80
2019-01-15T08:16:08.768Z,81.50
2019-01-15T08:18:53.707Z,81.80
2019-01-15T08:21:39.080Z,81.50
2019-01-15T08:24:32.903Z,81.40
2019-01-15T08:27:18.416Z,81.00
2019-01-15T08:30:03.381Z,81.00
2019-01-15T08:32:48.377Z,81.10
2019-01-15T08:35:33.587Z,80.20
2019-01-15T08:38:27.436Z,80.20
2019-01-15T08:41:12.124Z,80.70
2019-01-15T08:43:56.869Z,80.60
2019-01-15T08:46:41.183Z,81.00
2019-01-15T08:49:28.671Z,81.00
2019-01-15T08:52:22.284Z,80.60
2019-01-15T08:55:07.112Z,80.60
2019-01-15T08:57:52.019Z,80.70
2019-01-15T09:00:36.847Z,79.70
2019-01-15T09:03:21.551Z,78.80
2019-01-15T09:06:06.183Z,78.00
2019-01-15T09:08:51.011Z,77.80
2019-01-15T09:11:35.956Z,77.40
2019-01-15T09:14:26.781Z,77.80
2019-01-15T09:17:19.583Z,78.40
2019-01-15T09:20:13.088Z,78.40
2019-01-15T09:22:58.084Z,77.20
2019-01-15T09:25:43.060Z,77.30
2019-01-15T09:28:27.953Z,76.40
2019-01-15T09:31:12.751Z,76.00
2019-01-15T09:33:57.379Z,75.40
2019-01-15T09:36:42.144Z,74.20
2019-01-15T09:39:27.375Z,73.30
2019-01-15T09:42:21.823Z,71.80
2019-01-15T09:45:06.649Z,70.30
2019-01-15T09:51:22.608Z,70.30
2019-01-15T09:54:15.696Z,69.80
2019-01-15T09:57:00.279Z,69.20
2019-01-15T09:59:45.220Z,68.60
2019-01-15T10:02:30.215Z,68.00
2019-01-15T10:05:15.027Z,68.20
2019-01-15T10:07:59.895Z,67.30
2019-01-15T10:10:45.216Z,67.10
2019-01-15T10:13:38.847Z,66.40
2019-01-15T10:16:23.895Z,65.80
2019-01-15T10:19:17.711Z,67.00
2019-01-15T10:22:02.995Z,66.90
2019-01-15T10:24:56.679Z,67.20
2019-01-15T10:27:41.627Z,68.50
2019-01-15T10:30:32.516Z,69.00
2019-01-15T10:33:17.520Z,68.80
2019-01-15T10:36:02.683Z,69.70
2019-01-15T10:38:48.409Z,69.10
2019-01-15T10:41:33.048Z,68.70
2019-01-15T10:44:18.168Z,68.30
2019-01-15T10:47:03.235Z,66.70
2019-01-15T10:49:48.128Z,66.30
2019-01-15T10:52:32.459Z,66.30
2019-01-15T10:55:26.511Z,65.70
2019-01-15T10:58:17.359Z,64.80
2019-01-15T11:00:57.667Z,64.80
2019-01-15T11:03:42.168Z,63.50
2019-01-15T11:06:27.147Z,63.40
2019-01-15T11:09:12.231Z,62.80
2019-01-15T11:11:57.054Z,63.30
2019-01-15T11:14:42.403Z,63.50
2019-01-15T11:17:35.795Z,62.60
2019-01-15T11:20:20.963Z,62.30
2019-01-15T11:23:05.617Z,61.30
2019-01-15T11:25:50.146Z,60.70
2019-01-15T11:28:34.893Z,59.90
2019-01-15T11:31:19.913Z,59.30
2019-01-15T11:34:04.492Z,59.10
2019-01-15T11:36:49.543Z,59.50
2019-01-15T11:39:34.440Z,58.70
2019-01-15T11:42:19.007Z,59.20
2019-01-15T11:45:03.904Z,59.70
2019-01-15T11:47:49.063Z,59.70
2019-01-15T11:50:34.091Z,58.70
2019-01-15T11:53:27.716Z,58.50
2019-01-15T11:56:12.427Z,59.00
2019-01-15T11:58:57.652Z,59.50
2019-01-15T12:05:03.895Z,62.40
2019-01-15T12:08:07.207Z,61.80
2019-01-15T12:11:11.212Z,62.10
2019-01-15T12:14:13.243Z,62.90
2019-01-15T12:17:39.892Z,64.30
2019-01-15T12:21:00.713Z,64.30
2019-01-15T12:24:05.267Z,65.10
2019-01-15T12:27:17.938Z,65.90
2019-01-15T12:30:21.676Z,65.10
2019-01-15T12:33:31.387Z,65.40
2019-01-15T12:36:51.992Z,66.30
2019-01-15T12:40:12.444Z,66.70
2019-01-15T12:43:22.348Z,66.70
2019-01-15T12:46:42.796Z,67.60
2019-01-15T12:49:42.659Z,68.00
2019-01-15T12:53:03.275Z,67.70
2019-01-15T12:56:23.571Z,67.90
2019-01-15T12:59:19.192Z,68.90
2019-01-15T13:02:22.600Z,68.70
2019-01-15T13:05:43.345Z,67.90
2019-01-15T13:08:47.032Z,67.50
2019-01-15T13:11:57.044Z,67.00
2019-01-15T13:15:00.470Z,66.80
2019-01-15T13:18:21.214Z,67.20
2019-01-15T13:21:24.824Z,68.30
2019-01-15T13:24:34.595Z,67.70
2019-01-15T13:27:55.299Z,67.90
2019-01-15T13:31:06.236Z,67.60
2019-01-15T13:34:15.940Z,67.80
2019-01-15T13:37:19.695Z,67.90
2019-01-15T13:40:13.002Z,67.40
2019-01-15T13:43:16.912Z,67.30
2019-01-15T13:46:22.828Z,67.00
2019-01-15T13:49:32.528Z,67.70
2019-01-15T13:52:35.684Z,67.70
2019-01-15T13:55:39.871Z,67.00
2019-01-15T13:59:10.727Z,67.70
2019-01-15T14:02:37.572Z,67.70
2019-01-15T14:05:41.849Z,67.60
2019-01-15T14:09:02.479Z,67.80
2019-01-15T14:12:09.777Z,67.10
2019-01-15T14:15:50.612Z,67.40
2019-01-15T14:18:54.007Z,68.00
2019-01-15T14:21:57.532Z,68.70
2019-01-15T14:25:18.105Z,68.00
2019-01-15T14:28:18.549Z,67.60
2019-01-15T14:31:24.561Z,67.60
2019-01-15T14:34:28.571Z,68.20
2019-01-15T14:37:32.360Z,67.90
2019-01-15T14:40:35.006Z,68.20
2019-01-15T14:43:29.713Z,67.70
2019-01-15T14:46:53.521Z,67.70
2019-01-15T14:50:13.576Z,67.80
2019-01-15T14:53:17.519Z,68.20
2019-01-15T14:56:21.700Z,68.20
2019-01-15T14:59:25.300Z,68.40
2019-01-15T15:02:45.698Z,69.00
2019-01-15T15:05:49.349Z,68.20
2019-01-15T15:08:53.020Z,67.50
2019-01-15T15:11:56.891Z,67.50
2019-01-15T15:15:16.620Z,68.50
2019-01-15T15:18:22.951Z,68.40
2019-01-15T15:21:42.980Z,67.60
2019-01-15T15:24:47.079Z,67.90
2019-01-15T15:27:51.044Z,68.10
2019-01-15T15:30:54.962Z,67.60
2019-01-15T15:33:59.007Z,67.70
2019-01-15T15:37:05.487Z,68.10
2019-01-15T15:40:29.120Z,69.30
2019-01-15T15:43:27.036Z,68.90
2019-01-15T15:46:50.561Z,68.10
2019-01-15T15:49:54.944Z,67.90
2019-01-15T15:56:46.272Z,69.10
2019-01-15T16:00:10.367Z,69.00
2019-01-15T16:03:19.705Z,69.60
2019-01-15T16:06:40.807Z,68.70
2019-01-15T16:09:47.388Z,68.70
2019-01-15T16:13:08.020Z,69.80
2019-01-15T16:19:14.008Z,70.10
2019-01-15T16:22:20.227Z,70.50
2019-01-15T16:25:41.037Z,70.20
2019-01-15T16:28:44.472Z,70.90
2019-01-15T16:31:47.709Z,70.90
2019-01-15T16:35:04.971Z,70.80
2019-01-15T16:41:37.676Z,70.40
2019-01-15T16:44:40.990Z,70.20
2019-01-15T16:47:47.395Z,70.10
2019-01-15T16:51:08.057Z,70.50
2019-01-15T16:54:11.569Z,69.90
2019-01-15T16:57:14.940Z,68.70
2019-01-15T17:00:33.205Z,68.80
2019-01-15T17:03:55.143Z,69.90
2019-01-15T17:06:49.100Z,70.10
2019-01-15T17:10:01.612Z,71.00
2019-01-15T17:13:24.101Z,70.40
2019-01-15T17:16:33.829Z,70.80
2019-01-15T17:20:12.632Z,71.10
2019-01-15T17:23:16.679Z,71.60
2019-01-15T17:26:20.515Z,72.30
2019-01-15T17:29:35.743Z,72.10
2019-01-15T17:32:39.769Z,72.20
2019-01-15T17:35:41.915Z,72.10
2019-01-15T17:38:45.180Z,72.30
2019-01-15T17:41:50.494Z,73.10
2019-01-15T17:45:11.270Z,73.10
2019-01-15T17:48:17.592Z,73.60
2019-01-15T17:58:18.439Z,74.30
2019-01-15T18:01:15.850Z,74.50
2019-01-15T18:04:19.656Z,74.40
2019-01-15T18:07:36.199Z,74.60
2019-01-15T18:10:40.175Z,74.50
2019-01-15T18:13:43.943Z,74.40
2019-01-15T18:17:10.285Z,74.70
2019-01-15T18:20:13.426Z,75.10
2019-01-15T18:23:33.930Z,75.30
2019-01-15T18:26:37.932Z,75.50
2019-01-15T18:29:41.605Z,75.60
2019-01-15T18:32:45.727Z,75.90
2019-01-15T18:35:57.643Z,76.00
2019-01-15T18:39:27.740Z,76.30
2019-01-15T18:42:48.767Z,76.20
2019-01-15T18:45:42.386Z,76.80
2019-01-15T18:48:46.170Z,76.80
2019-01-15T18:51:49.216Z,76.80
2019-01-15T18:54:52.980Z,76.80
2019-01-15T18:57:56.906Z,76.20
2019-01-15T19:00:57.538Z,76.20
2019-01-15T19:04:20.499Z,76.40
2019-01-15T19:07:41.063Z,76.10
2019-01-15T19:10:44.866Z,76.40
2019-01-15T19:13:35.439Z,76.20
2019-01-15T19:16:36.176Z,75.70
2019-01-15T19:19:40.113Z,75.60
2019-01-15T19:22:49.798Z,75.80
2019-01-15T19:25:53.603Z,75.80
2019-01-15T19:29:00.291Z,75.70
2019-01-15T19:32:03.995Z,75.70
2019-01-15T19:35:25.935Z,75.50
2019-01-15T19:38:32.811Z,75.50
2019-01-15T19:41:55.824Z,75.60
2019-01-15T19:45:21.535Z,74.70
2019-01-15T19:48:16.892Z,74.80
2019-01-15T19:51:40.742Z,74.50
2019-01-15T19:54:44.688Z,74.60
2019-01-15T19:57:48.437Z,75.20
2019-01-15T20:00:52.605Z,74.60
2019-01-15T20:03:44.547Z,74.50
2019-01-15T20:06:48.151Z,74.80
2019-01-15T20:10:08.774Z,75.40
2019-01-15T20:13:18.604Z,74.80
2019-01-15T20:16:22.628Z,74.90
2019-01-15T20:19:29.032Z,74.90
2019-01-15T20:22:33.308Z,75.30
2019-01-15T20:25:54.119Z,75.10
2019-01-15T20:28:54.455Z,74.80
2019-01-15T20:31:58.075Z,74.80
2019-01-15T20:35:01.712Z,74.30
2019-01-15T20:38:15.804Z,74.10
2019-01-15T20:41:13.365Z,73.40
2019-01-15T20:44:16.847Z,73.20
2019-01-15T20:47:40.555Z,73.00
2019-01-15T20:50:50.129Z,73.90
2019-01-15T20:54:06.387Z,73.00
2019-01-15T20:57:25.999Z,73.70
2019-01-15T21:00:30.291Z,73.90
2019-01-15T21:03:53.780Z,73.80
2019-01-15T21:06:51.598Z,73.80
2019-01-15T21:10:09.778Z,73.50
2019-01-15T21:13:15.544Z,73.40
2019-01-15T21:16:19.137Z,73.50
2019-01-15T21:19:22.307Z,73.70
2019-01-15T21:22:32.410Z,73.40
2019-01-15T21:25:33.631Z,73.70
2019-01-15T21:28:37.363Z,73.80
2019-01-15T21:31:41.151Z,74.00
2019-01-15T21:34:48.127Z,73.90
2019-01-15T21:37:51.801Z,74.00
2019-01-15T21:41:12.288Z,73.70
2019-01-15T21:44:19.110Z,73.70
2019-01-15T21:47:25.974Z,73.00
2019-01-15T21:50:49.694Z,73.60
2019-01-15T21:53:52.050Z,73.00
2019-01-15T21:57:01.602Z,72.90
2019-01-15T22:00:22.678Z,72.80
2019-01-15T22:03:26.990Z,73.60
2019-01-15T22:06:47.739Z,72.90
2019-01-15T22:09:50.107Z,72.30
2019-01-15T22:12:51.254Z,72.90
2019-01-15T22:15:54.875Z,72.40
2019-01-15T22:18:58.134Z,71.80
2019-01-15T22:22:18.462Z,71.90
2019-01-15T22:25:22.398Z,71.70
2019-01-15T22:28:16.258Z,71.90
2019-01-15T22:31:19.839Z,71.00
2019-01-15T22:34:40.647Z,70.30
2019-01-15T22:37:44.648Z,69.90
2019-01-15T22:40:36.374Z,70.30
2019-01-15T22:43:55.708Z,70.90
2019-01-15T22:46:59.611Z,71.10
2019-01-15T22:50:03.548Z,71.30
2019-01-15T22:52:55.411Z,71.30
2019-01-15T22:55:59.003Z,70.80
2019-01-15T22:58:54.426Z,71.10
2019-01-15T23:02:15.163Z,71.50
2019-01-15T23:05:41.822Z,71.80
2019-01-15T23:12:17.246Z,71.60
2019-01-15T23:15:34.978Z,71.20
2019-01-15T23:18:41.923Z,71.20
2019-01-15T23:21:46.123Z,70.90
2019-01-15T23:24:49.639Z,71.10
2019-01-15T23:27:53.190Z,71.20
2019-01-15T23:30:56.685Z,71.40
2019-01-15T23:34:02.811Z,71.60
2019-01-15T23:37:23.251Z,71.10
2019-01-15T23:40:19.471Z,70.40
2019-01-15T23:43:39.971Z,71.70
2019-01-15T23:46:43.868Z,71.70
2019-01-15T23:50:03.939Z,70.50
2019-01-15T23:53:07.327Z,70.70
2019-01-15T23:56:27.834Z,71.20
2019-01-15T23:59:31.059Z,70.10
